Time;durP1;ratioP1;P1;durP2;ratioP2;P2;SDS_P1;SDS_P2;PMS_P1;PMS_P2;Temp;Humidity;BMP_temperature;BMP_pressure;BME280_temperature;BME280_humidity;BME280_pressure;Samples;Min_cycle;Max_cycle;Signal;HPM_P1;HPM_P2
2024/02/14 00:01:10;;;;;;;;;29.00;22.00;;;;;4.83;77.54;99923.78;6270315;20;2500368;-39
2024/02/14 00:03:37;;;;;;;;;21.00;19.00;;;;;4.78;77.29;99929.25;6275845;20;2819163;-39
2024/02/14 00:06:07;;;;;;;;;22.00;20.50;;;;;4.80;77.38;99926.56;6270348;20;3447271;-39
2024/02/14 00:08:37;;;;;;;;;20.00;16.00;;;;;4.62;78.23;99934.22;6304463;20;3566976;-39
2024/02/14 00:11:06;;;;;;;;;22.67;17.00;;;;;4.56;77.91;99934.44;6304492;20;3568034;-39
2024/02/14 00:13:35;;;;;;;;;15.67;15.67;;;;;4.59;78.57;99933.47;6302841;20;3557622;-39
2024/02/14 00:16:06;;;;;;;;;25.00;19.33;;;;;4.41;79.20;99929.59;6304500;20;3565912;-39
2024/02/14 00:18:34;;;;;;;;;26.00;22.50;;;;;4.08;81.36;99931.53;6269734;20;2492025;-39
2024/02/14 00:21:02;;;;;;;;;20.50;20.00;;;;;4.22;79.90;99939.97;6275962;20;2827389;-39
2024/02/14 00:23:31;;;;;;;;;24.00;17.00;;;;;4.50;79.81;99947.94;6269736;20;3557592;-39
2024/02/14 00:26:00;;;;;;;;;15.80;13.20;;;;;4.42;78.79;99941.97;6327757;20;2804448;-39
2024/02/14 00:28:29;;;;;;;;;23.00;16.67;;;;;4.50;77.87;99942.63;6274875;20;3572137;-39
2024/02/14 00:30:58;;;;;;;;;16.67;15.67;;;;;4.23;79.58;99941.69;6275657;20;3562743;-38
2024/02/14 00:33:28;;;;;;;;;15.40;14.60;;;;;4.44;78.42;99942.78;6333634;20;2823626;-40
2024/02/14 00:35:56;;;;;;;;;18.50;16.00;;;;;4.53;77.54;99950.50;6279509;20;2835839;-39
2024/02/14 00:38:25;;;;;;;;;17.33;14.33;;;;;4.39;77.31;99950.03;6278497;20;3554466;-39
2024/02/14 00:40:53;;;;;;;;;20.50;16.50;;;;;4.19;78.79;99950.69;6312959;20;2839865;-39
2024/02/14 00:43:23;;;;;;;;;11.80;11.80;;;;;4.15;78.64;99947.25;6303723;20;2788927;-39
2024/02/14 00:45:51;;;;;;;;;14.00;14.00;;;;;4.19;78.77;99950.69;6276975;20;2812814;-39
2024/02/14 00:48:21;;;;;;;;;18.60;14.80;;;;;4.10;78.96;99966.91;6301307;20;2824245;-39
2024/02/14 00:50:52;;;;;;;;;21.20;16.00;;;;;3.94;78.87;99972.69;6301792;20;2819024;-39
2024/02/14 00:53:20;;;;;;;;;13.00;13.00;;;;;3.96;78.29;99970.00;6275415;20;2802413;-38
2024/02/14 00:55:48;;;;;;;;;13.50;12.00;;;;;3.85;79.66;99972.97;6278290;20;2796112;-40
2024/02/14 00:58:17;;;;;;;;;20.67;14.33;;;;;3.63;82.50;99975.34;6273992;20;2829592;-39
2024/02/14 01:00:46;;;;;;;;;27.33;16.67;;;;;3.55;82.95;99973.84;6307059;20;3585248;-39
2024/02/14 01:03:16;;;;;;;;;14.33;14.33;;;;;3.65;82.62;99984.16;6275934;20;2790034;-39
2024/02/14 01:05:44;;;;;;;;;20.00;18.00;;;;;3.20;84.15;99989.81;6310495;20;2823208;-39
2024/02/14 01:08:12;;;;;;;;;14.00;13.00;;;;;2.70;85.66;99984.03;6277050;20;2784709;-39
2024/02/14 01:10:41;;;;;;;;;14.67;14.33;;;;;2.58;86.29;99985.22;6277924;20;3550255;-39
2024/02/14 01:13:09;;;;;;;;;16.00;15.00;;;;;3.06;85.67;99991.97;6307050;20;2811748;-39
2024/02/14 01:15:37;;;;;;;;;12.00;12.00;;;;;3.09;86.64;100002.50;6276991;20;2783662;-39
2024/02/14 01:18:06;;;;;;;;;20.33;17.00;;;;;2.97;87.54;99992.19;6274146;20;3570182;-39
2024/02/14 01:20:34;;;;;;;;;22.00;14.50;;;;;2.80;88.73;99995.28;6305326;20;2823393;-40
2024/02/14 01:23:03;;;;;;;;;17.33;15.67;;;;;2.69;90.21;99995.56;6274639;20;3552435;-39
2024/02/14 01:25:32;;;;;;;;;24.67;18.67;;;;;2.97;88.90;99985.09;6305963;20;3576323;-39
2024/02/14 01:28:00;;;;;;;;;26.00;18.50;;;;;2.92;88.12;99981.69;6307140;20;2829428;-39
2024/02/14 01:30:28;;;;;;;;;18.50;18.50;;;;;2.79;87.43;99983.81;6278284;20;2824351;-39
2024/02/14 01:32:57;;;;;;;;;20.67;18.33;;;;;3.33;85.12;99978.88;6274311;20;3559612;-39
2024/02/14 01:35:26;;;;;;;;;24.67;22.33;;;;;2.98;86.67;99988.66;6304590;20;3562820;-39
2024/02/14 01:37:55;;;;;;;;;15.33;15.00;;;;;3.26;84.82;99979.03;6277370;20;2837834;-39
2024/02/14 01:40:24;;;;;;;;;17.00;14.33;;;;;3.14;85.07;99992.66;6305046;20;3549278;-38
2024/02/14 01:42:52;;;;;;;;;15.00;15.00;;;;;3.22;85.48;99988.00;6307536;20;3548307;-39
2024/02/14 01:45:21;;;;;;;;;22.00;19.33;;;;;3.65;81.43;99986.81;6307973;20;3559714;-39
2024/02/14 01:47:51;;;;;;;;;14.67;12.67;;;;;3.53;80.37;99997.78;6308035;20;3542092;-39
2024/02/14 01:50:28;;;;;;;;;22.33;19.00;;;;;3.15;83.85;99990.84;6306792;20;3545050;-39
2024/02/14 01:53:00;;;;;;;;;18.00;13.33;;;;;3.15;83.93;99991.72;6303161;20;3548226;-39
2024/02/14 01:55:28;;;;;;;;;17.00;13.00;;;;;3.48;82.35;99997.06;6304997;20;2791987;-38
2024/02/14 01:57:56;;;;;;;;;11.00;11.00;;;;;3.00;84.21;99993.00;6277371;20;2782635;-39
2024/02/14 02:00:25;;;;;;;;;13.00;10.00;;;;;2.76;85.81;99997.13;6275079;20;2791986;-39
2024/02/14 02:02:55;;;;;;;;;29.67;22.33;;;;;2.44;86.39;100003.22;6276165;20;3595124;-39
2024/02/14 02:05:24;;;;;;;;;33.50;25.50;;;;;2.63;86.16;99999.22;6275914;20;2833607;-39
2024/02/14 02:07:53;;;;;;;;;17.50;11.00;;;;;2.48;86.50;100001.38;6275812;20;2802502;-39
2024/02/14 02:10:25;;;;;;;;;11.00;9.00;;;;;2.38;86.97;99998.06;6294480;20;1820938;-39
2024/02/14 02:13:00;;;;;;;;;17.50;12.00;;;;;1.81;89.72;99999.28;6308547;20;2797325;-40
2024/02/14 02:15:29;;;;;;;;;16.00;12.00;;;;;2.16;90.25;100008.28;6275042;20;2799285;-39
2024/02/14 02:17:59;;;;;;;;;10.00;10.00;;;;;1.98;91.35;100007.75;6274638;20;2781653;-39
2024/02/14 02:20:29;;;;;;;;;11.80;10.40;;;;;2.16;90.45;100018.88;6298296;20;2779512;-39
2024/02/14 02:22:59;;;;;;;;;14.20;12.40;;;;;2.06;91.38;100019.97;6299063;20;2788905;-40
2024/02/14 02:25:27;;;;;;;;;16.00;12.50;;;;;1.39;92.65;100031.00;6273228;20;2800433;-39
2024/02/14 02:27:57;;;;;;;;;14.50;12.50;;;;;1.54;94.56;100030.72;6276519;20;2791983;-40
2024/02/14 02:30:25;;;;;;;;;15.00;15.00;;;;;1.94;93.42;100040.50;6275745;20;2792098;-40
2024/02/14 02:32:53;;;;;;;;;13.00;9.50;;;;;2.40;89.79;100039.50;6272513;20;2769183;-39
2024/02/14 02:35:24;;;;;;;;;10.25;10.25;;;;;1.65;92.23;100035.78;6290282;20;1817015;-39
2024/02/14 02:37:52;;;;;;;;;20.00;13.00;;;;;1.79;93.37;100040.84;6302561;20;2797248;-40
2024/02/14 02:40:21;;;;;;;;;22.00;17.00;;;;;1.68;93.34;100042.78;6273371;20;2827391;-39
2024/02/14 02:42:50;;;;;;;;;20.00;13.00;;;;;1.59;94.85;100043.84;6274659;20;2806615;-39
2024/02/14 02:45:18;;;;;;;;;4.33;0.67;;;;;1.83;94.16;100053.09;6279024;20;3451495;-39
2024/02/14 02:47:47;;;;;;;;;15.00;13.00;;;;;1.91;93.62;100050.28;6305023;20;2805523;-38
2024/02/14 02:50:16;;;;;;;;;15.00;13.00;;;;;1.77;95.48;100047.94;6272614;20;2791088;-39
2024/02/14 02:52:43;;;;;;;;;17.00;15.50;;;;;1.80;94.28;100062.88;6273137;20;2822211;-39
2024/02/14 02:55:11;;;;;;;;;13.67;11.33;;;;;1.96;94.78;100070.47;6270952;20;3502339;-39
2024/02/14 02:57:41;;;;;;;;;14.00;14.00;;;;;1.76;92.99;100064.69;6270523;20;2809851;-40
2024/02/14 03:00:12;;;;;;;;;8.67;6.00;;;;;1.78;95.43;100070.84;6272760;20;3465887;-39
2024/02/14 03:02:46;;;;;;;;;18.00;16.50;;;;;1.26;96.52;100069.16;6303330;20;2821174;-40
2024/02/14 03:05:18;;;;;;;;;15.00;13.50;;;;;1.71;96.34;100078.03;6271470;20;2795107;-40
2024/02/14 03:07:49;;;;;;;;;15.50;15.50;;;;;1.35;96.53;100071.66;6274586;20;2825343;-39
2024/02/14 03:10:21;;;;;;;;;18.40;16.00;;;;;1.07;97.34;100082.69;6297807;20;2830526;-39
2024/02/14 03:12:49;;;;;;;;;23.67;19.33;;;;;1.02;99.40;100079.25;6275329;20;3575260;-39
2024/02/14 03:15:20;;;;;;;;;23.00;18.50;;;;;1.54;96.52;100088.91;6326546;20;2833633;-40
2024/02/14 03:17:48;;;;;;;;;17.00;12.67;;;;;1.36;96.25;100083.97;6305120;20;2802443;-38
2024/02/14 03:20:19;;;;;;;;;24.00;19.00;;;;;0.74;99.97;100086.75;6303317;20;3551324;-40
2024/02/14 03:22:48;;;;;;;;;26.67;19.00;;;;;1.15;98.50;100085.19;6306036;20;3565914;-40
2024/02/14 03:25:19;;;;;;;;;28.67;20.67;;;;;1.41;96.93;100087.41;6304105;20;3564925;-39
2024/02/14 03:27:52;;;;;;;;;24.50;22.00;;;;;0.98;97.03;100087.28;6305851;20;2828437;-38
2024/02/14 03:30:23;;;;;;;;;22.67;15.67;;;;;1.15;97.65;100087.84;6296175;20;2830543;-39
2024/02/14 03:32:52;;;;;;;;;12.50;10.00;;;;;0.59;100.00;100092.25;6307121;20;2785933;-39
2024/02/14 03:35:21;;;;;;;;;24.33;18.00;;;;;1.13;99.14;100086.13;6274221;20;3572132;-39
2024/02/14 03:37:52;;;;;;;;;22.33;15.67;;;;;1.35;97.34;100087.50;6304941;20;3547145;-39
2024/02/14 03:40:20;;;;;;;;;12.00;8.00;;;;;1.64;94.75;100094.06;6304973;20;2768114;-38
2024/02/14 03:42:49;;;;;;;;;23.67;22.00;;;;;1.49;95.13;100098.72;6270613;20;3577439;-39
2024/02/14 03:45:18;;;;;;;;;25.00;19.00;;;;;1.17;96.64;100098.41;6299949;20;3567001;-39
2024/02/14 03:47:46;;;;;;;;;23.00;19.00;;;;;0.97;98.35;100101.38;6305548;20;3440946;-39
2024/02/14 03:50:15;;;;;;;;;15.00;13.00;;;;;1.34;97.20;100109.56;6303598;20;2795086;-39
2024/02/14 03:52:44;;;;;;;;;21.33;15.67;;;;;1.54;94.93;100110.09;6275598;20;3562744;-38
2024/02/14 03:55:14;;;;;;;;;21.33;16.00;;;;;1.71;95.70;100111.53;6302640;20;2801438;-39
2024/02/14 03:57:45;;;;;;;;;17.00;13.00;;;;;1.51;94.57;100120.72;6303445;20;3553516;-39
2024/02/14 04:00:16;;;;;;;;;16.00;16.00;;;;;1.05;98.58;100113.59;6325433;20;2825276;-39
2024/02/14 04:02:45;;;;;;;;;31.67;25.00;;;;;1.69;96.51;100118.66;6273336;20;3587791;-39
2024/02/14 04:05:13;;;;;;;;;58.00;40.67;;;;;1.19;96.74;100118.66;6271646;20;3645049;-38
2024/02/14 04:07:44;;;;;;;;;53.00;40.00;;;;;1.21;97.19;100123.88;6305632;20;2873184;-39
2024/02/14 04:10:13;;;;;;;;;45.00;33.50;;;;;1.02;99.22;100128.59;6271550;20;2873199;-39
2024/02/14 04:12:42;;;;;;;;;37.00;26.50;;;;;1.00;99.33;100128.66;6273409;20;2868115;-38
2024/02/14 04:15:10;;;;;;;;;32.00;26.00;;;;;0.62;100.00;100121.28;6271053;20;2842052;-39
2024/02/14 04:17:42;;;;;;;;;23.33;22.00;;;;;0.84;100.00;100121.81;6272904;20;3555540;-39
2024/02/14 04:20:10;;;;;;;;;34.00;32.50;;;;;1.31;98.69;100117.56;6295973;20;2500351;-39
2024/02/14 04:22:38;;;;;;;;;19.00;14.50;;;;;0.36;100.00;100125.13;6272358;20;2809788;-39
2024/02/14 04:25:08;;;;;;;;;25.00;19.00;;;;;0.82;100.00;100126.28;6270705;20;2834707;-39
2024/02/14 04:27:37;;;;;;;;;43.67;26.00;;;;;1.14;99.67;100127.56;6275391;20;2878602;-39
2024/02/14 04:30:06;;;;;;;;;29.00;26.00;;;;;1.26;97.75;100132.63;6301172;20;2500285;-39
2024/02/14 04:32:34;;;;;;;;;30.00;26.00;;;;;1.30;96.46;100134.34;6268945;20;2852435;-39
2024/02/14 04:35:03;;;;;;;;;32.00;26.00;;;;;1.56;95.92;100141.84;6271142;20;2839881;-39
2024/02/14 04:37:32;;;;;;;;;29.00;22.00;;;;;1.17;96.34;100143.38;6273692;20;2835063;-38
2024/02/14 04:40:03;;;;;;;;;25.00;20.50;;;;;1.22;97.99;100146.81;6273760;20;2815910;-38
2024/02/14 04:42:32;;;;;;;;;26.67;22.33;;;;;1.41;95.76;100144.72;6269180;20;3570150;-39
2024/02/14 04:45:01;;;;;;;;;27.33;21.00;;;;;1.42;96.12;100157.94;6303473;20;3570176;-39
2024/02/14 04:47:29;;;;;;;;;32.00;26.00;;;;;1.20;95.98;100156.53;6303550;20;2831560;-39
2024/02/14 04:49:57;;;;;;;;;32.50;24.00;;;;;0.99;99.12;100158.59;6268092;20;2500298;-40
2024/02/14 04:52:26;;;;;;;;;39.00;30.50;;;;;0.60;99.96;100154.75;6270109;20;2500296;-39
2024/02/14 04:54:54;;;;;;;;;35.00;35.00;;;;;1.08;100.00;100161.13;6266678;20;2500307;-39
2024/02/14 04:57:22;;;;;;;;;34.00;29.00;;;;;1.13;97.70;100157.53;6266524;20;2500290;-39
2024/02/14 04:59:50;;;;;;;;;36.50;31.50;;;;;1.01;98.77;100161.25;6270013;20;2856573;-39
2024/02/14 05:02:18;;;;;;;;;31.50;28.00;;;;;0.72;98.94;100159.03;6264884;20;2500365;-38
2024/02/14 05:04:46;;;;;;;;;30.50;23.00;;;;;0.91;100.00;100163.13;6273011;20;2839899;-39
2024/02/14 05:07:16;;;;;;;;;44.50;35.00;;;;;0.35;100.00;100170.06;6267617;20;2863832;-39
2024/02/14 05:09:44;;;;;;;;;36.50;35.00;;;;;0.61;100.00;100167.97;6268398;20;2500398;-39
2024/02/14 05:12:13;;;;;;;;;38.00;29.00;;;;;0.86;100.00;100167.63;6270814;20;2861740;-38
2024/02/14 05:14:41;;;;;;;;;30.50;24.00;;;;;0.61;100.00;100173.25;6274177;20;2849333;-39
2024/02/14 05:17:09;;;;;;;;;38.50;34.00;;;;;0.63;100.00;100171.47;6274919;20;2500361;-39
2024/02/14 05:19:38;;;;;;;;;40.67;30.67;;;;;1.07;99.70;100177.88;6277242;20;3600257;-38
2024/02/14 05:22:06;;;;;;;;;35.50;32.00;;;;;0.69;100.00;100178.44;6273959;20;2500287;-39
2024/02/14 05:24:37;;;;;;;;;32.00;24.00;;;;;0.63;100.00;100182.03;6277196;20;3598177;-38
2024/02/14 05:27:06;;;;;;;;;28.00;26.00;;;;;0.87;100.00;100195.81;6277357;20;3575310;-38
2024/02/14 05:29:35;;;;;;;;;24.00;21.33;;;;;0.86;99.36;100188.75;6274194;20;3556526;-39
2024/02/14 05:32:05;;;;;;;;;30.67;22.00;;;;;0.71;99.96;100192.50;6305563;20;3572135;-39
2024/02/14 05:34:34;;;;;;;;;25.67;23.67;;;;;0.29;100.00;100185.97;6306900;20;3574231;-39
2024/02/14 05:37:05;;;;;;;;;54.00;39.00;;;;;0.50;100.00;100184.81;6307848;20;2886752;-39
2024/02/14 05:39:33;;;;;;;;;34.00;33.50;;;;;0.51;100.00;100186.59;6306257;20;2500406;-39
2024/02/14 05:42:02;;;;;;;;;31.50;19.00;;;;;-0.29;100.00;100187.44;6276947;20;2856537;-39
2024/02/14 05:44:30;;;;;;;;;40.00;36.00;;;;;0.05;100.00;100187.97;6270139;20;2500318;-39
2024/02/14 05:47:00;;;;;;;;;65.00;47.00;;;;;0.90;100.00;100197.53;6270932;20;2871248;-39
2024/02/14 05:49:29;;;;;;;;;52.00;41.67;;;;;0.72;99.66;100202.16;6276665;20;2865965;-39
2024/02/14 05:51:59;;;;;;;;;85.67;60.67;;;;;0.79;99.01;100195.03;6307229;20;3652376;-39
2024/02/14 05:54:28;;;;;;;;;62.50;45.50;;;;;-0.04;100.00;100207.44;6304058;20;2862785;-39
2024/02/14 05:56:57;;;;;;;;;37.33;24.00;;;;;0.35;100.00;100212.31;6274115;20;3582549;-39
2024/02/14 05:59:27;;;;;;;;;101.00;68.00;;;;;0.72;99.00;100212.75;6276617;20;3680554;-40
2024/02/14 06:01:57;;;;;;;;;107.67;72.00;;;;;0.66;98.14;100218.13;6301986;20;3705596;-39
2024/02/14 06:04:27;;;;;;;;;93.00;66.00;;;;;0.77;98.44;100215.34;6272900;20;3643105;-39
2024/02/14 06:06:57;;;;;;;;;88.00;66.33;;;;;0.29;100.00;100226.47;6306444;20;3660670;-39
2024/02/14 06:09:27;;;;;;;;;64.50;42.50;;;;;0.83;100.00;100236.38;6308690;20;2862811;-39
2024/02/14 06:11:54;;;;;;;;;62.00;49.00;;;;;0.92;99.54;100240.66;6269682;20;2489924;-39
2024/02/14 06:14:23;;;;;;;;;76.50;57.00;;;;;1.24;97.23;100234.94;6273004;20;2500440;-39
2024/02/14 06:16:52;;;;;;;;;65.00;49.50;;;;;1.28;96.43;100237.50;6275528;20;2869177;-39
2024/02/14 06:19:20;;;;;;;;;32.50;23.00;;;;;1.40;96.16;100248.81;6275286;20;2848238;-39
2024/02/14 06:21:48;;;;;;;;;31.00;28.50;;;;;1.83;93.51;100243.69;6271952;20;2500289;-39
2024/02/14 06:24:18;;;;;;;;;48.00;38.50;;;;;1.50;93.70;100243.38;6276297;20;2878405;-39
2024/02/14 06:26:48;;;;;;;;;58.33;43.67;;;;;1.47;95.31;100239.88;6272881;20;2869133;-39
2024/02/14 06:29:18;;;;;;;;;49.33;40.33;;;;;1.85;93.39;100241.91;6307706;20;2866064;-38
2024/02/14 06:31:46;;;;;;;;;41.00;32.00;;;;;3.68;85.58;100248.72;6304886;20;2500311;-39
2024/02/14 06:34:15;;;;;;;;;31.00;31.00;;;;;6.20;68.06;100254.69;6273595;20;2843074;-39
2024/02/14 06:36:44;;;;;;;;;51.00;38.50;;;;;5.25;70.51;100255.97;6273324;20;2872183;-39
2024/02/14 06:39:13;;;;;;;;;58.00;44.00;;;;;5.25;70.09;100247.97;6277459;20;2873246;-39
2024/02/14 06:41:43;;;;;;;;;57.00;47.00;;;;;5.08;72.26;100261.78;6304465;20;2487882;-40
2024/02/14 06:44:12;;;;;;;;;51.50;43.00;;;;;5.86;67.52;100267.31;6275622;20;2861869;-39
2024/02/14 06:46:42;;;;;;;;;45.50;39.50;;;;;5.29;70.26;100257.59;6275564;20;2855659;-38
2024/02/14 06:49:11;;;;;;;;;68.33;52.00;;;;;6.24;67.38;100257.22;6275311;20;2885854;-40
2024/02/14 06:51:41;;;;;;;;;79.33;57.00;;;;;6.19;66.97;100259.16;6307165;20;3660702;-39
2024/02/14 06:54:14;;;;;;;;;75.67;56.00;;;;;6.31;67.22;100256.03;6270152;20;3660750;-38
2024/02/14 06:56:43;;;;;;;;;59.00;45.33;;;;;7.67;59.33;100263.41;6304628;20;2872324;-39
2024/02/14 06:59:13;;;;;;;;;58.00;46.00;;;;;8.60;57.83;100273.78;6304189;20;2862784;-39
2024/02/14 07:01:42;;;;;;;;;46.00;37.67;;;;;8.99;55.06;100273.81;6304074;20;2872321;-39
2024/02/14 07:04:12;;;;;;;;;65.67;49.00;;;;;8.83;55.70;100286.16;6306510;20;3654478;-39
2024/02/14 07:06:41;;;;;;;;;62.33;46.33;;;;;11.01;50.81;100280.84;6303850;20;3639873;-39
2024/02/14 07:09:11;;;;;;;;;56.33;44.00;;;;;12.40;46.41;100290.94;6307008;20;3631535;-39
2024/02/14 07:11:41;;;;;;;;;57.00;44.67;;;;;11.61;46.83;100289.16;6306732;20;3615964;-39
2024/02/14 07:14:11;;;;;;;;;50.33;39.33;;;;;13.30;44.71;100292.63;6304693;20;3594069;-40
2024/02/14 07:16:41;;;;;;;;;51.67;38.67;;;;;12.32;45.95;100293.19;6304238;20;3618228;-40
2024/02/14 07:19:10;;;;;;;;;48.00;38.00;;;;;14.35;41.68;100302.88;6312702;20;3599269;-40
2024/02/14 07:21:39;;;;;;;;;35.33;34.00;;;;;13.75;41.92;100301.44;6274419;20;3598202;-40
2024/02/14 07:24:09;;;;;;;;;38.00;32.00;;;;;13.88;41.82;100306.03;6303028;20;2858706;-43
2024/02/14 07:26:40;;;;;;;;;28.00;22.00;;;;;13.13;43.86;100301.72;6303298;20;2848289;-40
2024/02/14 07:29:09;;;;;;;;;34.00;33.00;;;;;13.39;42.92;100305.53;6269412;20;2854456;-42
2024/02/14 07:31:37;;;;;;;;;33.67;31.00;;;;;14.03;43.52;100305.91;6274808;20;3601333;-42
2024/02/14 07:34:07;;;;;;;;;25.67;25.33;;;;;13.98;42.18;100309.84;6269484;20;3589847;-40
2024/02/14 07:36:37;;;;;;;;;24.33;22.67;;;;;14.86;40.81;100308.41;6305204;20;3583593;-42
2024/02/14 07:39:06;;;;;;;;;21.00;21.00;;;;;15.13;39.98;100316.44;6271219;20;2848192;-44
2024/02/14 07:41:35;;;;;;;;;22.00;20.50;;;;;13.70;42.97;100308.97;6269830;20;2823311;-41
2024/02/14 07:44:05;;;;;;;;;20.00;18.00;;;;;9.41;51.34;100304.91;6269330;20;2825301;-40
2024/02/14 07:46:33;;;;;;;;;21.00;18.00;;;;;7.94;56.91;100299.78;6271306;20;2841957;-40
2024/02/14 07:49:04;;;;;;;;;21.00;20.00;;;;;7.70;59.79;100300.69;6271751;20;2826361;-41
2024/02/14 07:51:36;;;;;;;;;21.00;18.00;;;;;7.70;60.61;100300.69;6268589;20;2500308;-40
2024/02/14 07:54:06;;;;;;;;;23.50;20.50;;;;;7.39;63.97;100301.03;6270418;20;2838950;-40
2024/02/14 07:56:35;;;;;;;;;22.00;22.00;;;;;7.98;61.33;100299.59;6269888;20;2826466;-40
2024/02/14 07:59:05;;;;;;;;;23.00;23.00;;;;;8.23;62.34;100301.22;6270797;20;2848207;-39
2024/02/14 08:01:33;;;;;;;;;28.00;24.00;;;;;8.07;61.13;100306.34;6268461;20;2500295;-39
2024/02/14 08:04:04;;;;;;;;;45.67;34.33;;;;;8.34;61.43;100307.00;6269773;20;2864996;-40
2024/02/14 08:06:34;;;;;;;;;32.33;26.33;;;;;8.47;60.76;100305.56;6304130;20;3608611;-40
2024/02/14 08:09:06;;;;;;;;;16.67;16.00;;;;;8.75;56.95;100304.38;6272736;20;3543055;-40
2024/02/14 08:11:35;;;;;;;;;22.00;19.00;;;;;8.74;57.70;100302.63;6271162;20;2496124;-41
2024/02/14 08:14:05;;;;;;;;;32.00;29.33;;;;;9.08;57.65;100309.16;6269962;20;2870149;-40
2024/02/14 08:16:33;;;;;;;;;15.00;14.50;;;;;8.57;57.58;100306.03;6307461;20;2791986;-40
2024/02/14 08:19:02;;;;;;;;;15.00;14.00;;;;;8.71;57.84;100308.13;6270969;20;2809188;-40
2024/02/14 08:21:31;;;;;;;;;19.00;16.00;;;;;8.51;57.87;100312.53;6272785;20;2498256;-40
2024/02/14 08:23:59;;;;;;;;;19.50;17.50;;;;;8.79;57.01;100316.69;6271002;20;2500306;-40
2024/02/14 08:26:31;;;;;;;;;32.67;28.00;;;;;8.34;58.00;100313.22;6272214;20;2856540;-40
2024/02/14 08:29:00;;;;;;;;;28.00;23.00;;;;;8.27;58.76;100314.44;6305176;20;2856567;-41
2024/02/14 08:31:29;;;;;;;;;18.00;16.33;;;;;8.63;58.35;100315.63;6272015;20;3559632;-40
2024/02/14 08:33:58;;;;;;;;;17.00;15.33;;;;;8.44;57.73;100312.88;6274487;20;3553371;-40
2024/02/14 08:36:26;;;;;;;;;16.50;16.00;;;;;8.88;57.29;100310.94;6273949;20;2827372;-40
2024/02/14 08:38:54;;;;;;;;;14.50;12.00;;;;;8.77;56.11;100313.22;6277027;20;2798195;-40
2024/02/14 08:41:23;;;;;;;;;16.00;15.00;;;;;8.61;56.83;100320.16;6276561;20;2810736;-40
2024/02/14 08:43:52;;;;;;;;;18.33;17.33;;;;;8.85;56.59;100320.91;6273092;20;3562821;-40
2024/02/14 08:46:20;;;;;;;;;20.00;15.67;;;;;8.86;56.20;100312.81;6273312;20;3550315;-40
2024/02/14 08:48:49;;;;;;;;;18.00;17.00;;;;;9.11;55.87;100317.03;6274870;20;2825390;-40
2024/02/14 08:51:21;;;;;;;;;15.00;15.00;;;;;9.39;55.65;100317.50;6276435;20;3542006;-40
2024/02/14 08:53:54;;;;;;;;;16.00;15.67;;;;;8.79;57.40;100316.69;6310460;20;3546101;-40
2024/02/14 08:56:23;;;;;;;;;16.33;15.00;;;;;8.89;57.30;100312.66;6308273;20;3542139;-41
2024/02/14 08:58:52;;;;;;;;;21.50;17.00;;;;;9.17;56.03;100327.50;6276323;20;2837979;-40
2024/02/14 09:01:21;;;;;;;;;16.67;15.67;;;;;9.15;55.65;100318.66;6275990;20;3562914;-40
2024/02/14 09:03:49;;;;;;;;;14.00;10.00;;;;;9.11;56.45;100317.03;6279416;20;2791943;-40
2024/02/14 09:06:18;;;;;;;;;18.67;14.33;;;;;9.41;53.64;100320.13;6276308;20;3533710;-40
2024/02/14 09:08:47;;;;;;;;;16.00;15.00;;;;;9.36;53.88;100317.66;6313324;20;2816954;-40
2024/02/14 09:11:16;;;;;;;;;18.33;17.00;;;;;9.21;54.88;100313.88;6280122;20;3569016;-40
2024/02/14 09:13:44;;;;;;;;;14.50;12.00;;;;;9.54;54.02;100328.47;6278915;20;2791980;-42
2024/02/14 09:16:13;;;;;;;;;18.67;16.00;;;;;9.35;54.36;100320.44;6279231;20;3566995;-40
2024/02/14 09:18:42;;;;;;;;;19.00;18.00;;;;;9.61;55.39;100321.88;6277121;20;2498255;-40
2024/02/14 09:21:11;;;;;;;;;18.67;17.00;;;;;9.66;53.98;100317.16;6277328;20;3566958;-41
2024/02/14 09:23:45;;;;;;;;;23.50;16.00;;;;;9.28;54.26;100314.47;6278907;20;2846151;-40
2024/02/14 09:26:13;;;;;;;;;21.67;20.00;;;;;9.59;55.09;100313.91;6277174;20;3563806;-40
2024/02/14 09:28:42;;;;;;;;;17.00;17.00;;;;;9.81;53.94;100316.41;6277717;20;2500419;-42
2024/02/14 09:31:11;;;;;;;;;16.50;16.50;;;;;9.83;52.86;100319.91;6281964;20;2824283;-42
2024/02/14 09:33:40;;;;;;;;;22.00;18.00;;;;;9.86;53.90;100317.06;6275940;20;3577343;-40
2024/02/14 09:36:11;;;;;;;;;119.25;109.75;;;;;9.74;52.67;100312.31;6278897;20;3704475;-40
2024/02/14 09:38:42;;;;;;;;;81.33;70.67;;;;;9.61;53.81;100316.50;6275129;20;3669001;-40
2024/02/14 09:41:27;;;;;;;;;21.00;18.50;;;;;9.38;52.29;100318.47;6272805;20;2500305;-40
2024/02/14 09:43:56;;;;;;;;;20.50;17.00;;;;;9.75;53.09;100313.19;6275694;20;2825509;-41
2024/02/14 09:46:27;;;;;;;;;18.00;18.00;;;;;10.05;52.96;100316.16;6272458;20;2492071;-41
2024/02/14 09:48:56;;;;;;;;;24.50;20.00;;;;;9.74;52.27;100306.97;6273110;20;2500305;-39
2024/02/14 09:51:25;;;;;;;;;17.00;12.67;;;;;9.62;51.38;100315.59;6274661;20;3540901;-40
2024/02/14 09:53:55;;;;;;;;;17.67;17.67;;;;;9.73;50.71;100309.69;6275910;20;3568081;-42
2024/02/14 09:56:23;;;;;;;;;20.00;20.00;;;;;9.96;50.96;100313.97;6306566;20;2842011;-42
2024/02/14 09:58:56;;;;;;;;;24.00;19.50;;;;;9.99;51.23;100311.13;6276841;20;2846149;-40
2024/02/14 10:01:26;;;;;;;;;19.00;18.00;;;;;9.81;51.61;100308.38;6273485;20;2500385;-40
2024/02/14 10:03:55;;;;;;;;;17.00;16.00;;;;;9.82;52.33;100315.50;6276831;20;3560883;-40
2024/02/14 10:06:25;;;;;;;;;16.50;16.50;;;;;9.71;52.63;100301.72;6277221;20;2496119;-42
2024/02/14 10:08:55;;;;;;;;;15.00;15.00;;;;;9.93;51.38;100295.34;6277499;20;3541990;-41
2024/02/14 10:11:32;;;;;;;;;16.00;15.00;;;;;9.33;52.11;100295.50;6307571;20;3550296;-40
2024/02/14 10:14:03;;;;;;;;;22.67;17.67;;;;;9.67;51.59;100298.31;6276131;20;3571206;-39
2024/02/14 10:16:35;;;;;;;;;14.67;14.00;;;;;9.67;51.21;100295.66;6276156;20;3507587;-40
2024/02/14 10:19:04;;;;;;;;;17.67;12.33;;;;;9.86;50.81;100300.97;6306373;20;3534687;-40
2024/02/14 10:21:33;;;;;;;;;15.00;15.00;;;;;9.82;51.22;100299.41;6311773;20;2804520;-43
2024/02/14 10:24:02;;;;;;;;;15.00;15.00;;;;;10.29;50.90;100301.59;6277101;20;3533645;-40
2024/02/14 10:26:31;;;;;;;;;17.00;17.00;;;;;9.71;51.39;100292.81;6276839;20;3554436;-40
2024/02/14 10:29:00;;;;;;;;;18.50;14.50;;;;;9.87;52.00;100305.41;6279235;20;2813844;-40
2024/02/14 10:31:28;;;;;;;;;15.00;13.00;;;;;9.85;52.52;100290.34;6278397;20;2804565;-40
2024/02/14 10:33:57;;;;;;;;;15.50;13.00;;;;;10.25;50.59;100288.34;6309738;20;2801345;-40
2024/02/14 10:36:25;;;;;;;;;14.50;14.50;;;;;10.23;50.88;100283.06;6280709;20;2802365;-40
2024/02/14 10:38:54;;;;;;;;;13.00;12.00;;;;;10.28;49.91;100286.41;6280047;20;2803818;-41
2024/02/14 10:41:22;;;;;;;;;16.00;13.00;;;;;9.98;51.31;100293.25;6276852;20;2811764;-40
2024/02/14 10:43:51;;;;;;;;;13.33;12.00;;;;;10.09;49.08;100281.06;6277074;20;3531504;-41
2024/02/14 10:46:30;;;;;;;;;13.50;13.00;;;;;10.13;50.60;100276.41;6311498;20;2790905;-40
2024/02/14 10:49:07;;;;;;;;;12.50;12.00;;;;;10.36;49.03;100287.84;6275352;20;2786858;-39
2024/02/14 10:51:36;;;;;;;;;14.33;12.00;;;;;10.38;48.83;100275.22;6277795;20;3526317;-40
2024/02/14 10:54:13;;;;;;;;;15.00;13.00;;;;;10.69;49.48;100285.22;6307564;20;2808641;-40
2024/02/14 10:56:44;;;;;;;;;14.50;14.00;;;;;10.19;47.86;100275.22;6279229;20;2785738;-40
2024/02/14 10:59:19;;;;;;;;;16.00;14.50;;;;;11.01;47.96;100269.22;6278394;20;2817011;-40
2024/02/14 11:01:48;;;;;;;;;13.50;12.00;;;;;10.77;47.36;100278.50;6272706;20;2791986;-41
2024/02/14 11:04:18;;;;;;;;;16.00;16.00;;;;;10.40;47.84;100276.88;6279224;20;2825427;-40
2024/02/14 11:06:54;;;;;;;;;14.00;14.00;;;;;10.65;48.40;100273.78;6273185;20;3527366;-40
2024/02/14 11:09:35;;;;;;;;;13.67;13.67;;;;;10.61;46.94;100271.31;6304592;20;3525396;-40
2024/02/14 11:12:08;;;;;;;;;19.00;17.00;;;;;10.37;48.83;100273.47;6303924;20;3560688;-40